sensor_id;sensor_type;location;lat;lon;timestamp;temperature;humidity
14473;DHT22;7322;50.872;4.386;2023-06-14T00:06:11;30.30;99.90
14473;DHT22;7322;50.872;4.386;2023-06-14T00:08:38;30.30;99.90
14473;DHT22;7322;50.872;4.386;2023-06-14T00:11:05;30.30;99.90
14473;DHT22;7322;50.872;4.386;2023-06-14T00:13:32;30.30;99.90
14473;DHT22;7322;50.872;4.386;2023-06-14T00:16:01;30.30;99.90
14473;DHT22;7322;50.872;4.386;2023-06-14T00:18:29;30.30;99.90
14473;DHT22;7322;50.872;4.386;2023-06-14T00:24:02;30.40;99.90
14473;DHT22;7322;50.872;4.386;2023-06-14T00:26:31;30.30;99.90
14473;DHT22;7322;50.872;4.386;2023-06-14T00:29:00;30.30;99.90
14473;DHT22;7322;50.872;4.386;2023-06-14T00:31:47;30.30;99.90
14473;DHT22;7322;50.872;4.386;2023-06-14T00:34:14;30.30;99.90
14473;DHT22;7322;50.872;4.386;2023-06-14T00:36:46;30.30;99.90
14473;DHT22;7322;50.872;4.386;2023-06-14T00:39:14;30.30;99.90
14473;DHT22;7322;50.872;4.386;2023-06-14T00:41:41;30.30;99.90
14473;DHT22;7322;50.872;4.386;2023-06-14T00:44:31;30.30;99.90
14473;DHT22;7322;50.872;4.386;2023-06-14T00:47:06;30.30;99.90
14473;DHT22;7322;50.872;4.386;2023-06-14T00:50:05;30.30;99.90
14473;DHT22;7322;50.872;4.386;2023-06-14T00:52:49;30.30;99.90
14473;DHT22;7322;50.872;4.386;2023-06-14T00:55:24;30.30;99.90
14473;DHT22;7322;50.872;4.386;2023-06-14T00:57:51;30.30;99.90
14473;DHT22;7322;50.872;4.386;2023-06-14T01:00:19;30.20;99.90
14473;DHT22;7322;50.872;4.386;2023-06-14T01:02:53;30.30;99.90
14473;DHT22;7322;50.872;4.386;2023-06-14T01:05:21;30.30;99.90
14473;DHT22;7322;50.872;4.386;2023-06-14T01:08:05;30.30;99.90
14473;DHT22;7322;50.872;4.386;2023-06-14T01:10:47;30.30;99.90
14473;DHT22;7322;50.872;4.386;2023-06-14T01:13:20;30.30;99.90
14473;DHT22;7322;50.872;4.386;2023-06-14T01:15:50;30.20;99.90
14473;DHT22;7322;50.872;4.386;2023-06-14T01:18:27;30.20;99.90
14473;DHT22;7322;50.872;4.386;2023-06-14T01:20:55;30.30;99.90
14473;DHT22;7322;50.872;4.386;2023-06-14T01:23:27;30.20;99.90
14473;DHT22;7322;50.872;4.386;2023-06-14T01:26:00;30.20;99.90
14473;DHT22;7322;50.872;4.386;2023-06-14T01:28:29;30.20;99.90
14473;DHT22;7322;50.872;4.386;2023-06-14T01:31:00;30.20;99.90
14473;DHT22;7322;50.872;4.386;2023-06-14T01:33:38;30.20;99.90
14473;DHT22;7322;50.872;4.386;2023-06-14T01:39:08;30.30;99.90
14473;DHT22;7322;50.872;4.386;2023-06-14T01:41:45;30.20;99.90
14473;DHT22;7322;50.872;4.386;2023-06-14T01:44:16;30.20;99.90
14473;DHT22;7322;50.872;4.386;2023-06-14T01:46:45;30.20;99.90
14473;DHT22;7322;50.872;4.386;2023-06-14T01:49:34;30.20;99.90
14473;DHT22;7322;50.872;4.386;2023-06-14T01:52:09;30.20;99.90
14473;DHT22;7322;50.872;4.386;2023-06-14T01:54:43;30.20;99.90
14473;DHT22;7322;50.872;4.386;2023-06-14T01:57:13;30.20;99.90
14473;DHT22;7322;50.872;4.386;2023-06-14T01:59:44;30.20;99.90
14473;DHT22;7322;50.872;4.386;2023-06-14T02:02:17;30.20;99.90
14473;DHT22;7322;50.872;4.386;2023-06-14T02:04:53;30.20;99.90
14473;DHT22;7322;50.872;4.386;2023-06-14T02:07:23;30.20;99.90
14473;DHT22;7322;50.872;4.386;2023-06-14T02:09:52;30.20;99.90
14473;DHT22;7322;50.872;4.386;2023-06-14T02:12:21;30.20;99.90
14473;DHT22;7322;50.872;4.386;2023-06-14T02:15:02;30.20;99.90
14473;DHT22;7322;50.872;4.386;2023-06-14T02:20:42;30.20;99.90
14473;DHT22;7322;50.872;4.386;2023-06-14T02:23:38;30.10;99.90
14473;DHT22;7322;50.872;4.386;2023-06-14T02:26:40;30.20;99.90
14473;DHT22;7322;50.872;4.386;2023-06-14T02:29:11;30.20;99.90
14473;DHT22;7322;50.872;4.386;2023-06-14T02:35:02;30.20;99.90
14473;DHT22;7322;50.872;4.386;2023-06-14T02:37:36;30.10;99.90
14473;DHT22;7322;50.872;4.386;2023-06-14T02:40:12;30.20;99.90
14473;DHT22;7322;50.872;4.386;2023-06-14T02:42:48;30.20;99.90
14473;DHT22;7322;50.872;4.386;2023-06-14T02:45:22;30.20;99.90
14473;DHT22;7322;50.872;4.386;2023-06-14T02:47:51;30.20;99.90
14473;DHT22;7322;50.872;4.386;2023-06-14T02:50:33;30.10;99.90
14473;DHT22;7322;50.872;4.386;2023-06-14T02:53:10;30.20;99.90
14473;DHT22;7322;50.872;4.386;2023-06-14T02:55:39;30.10;99.90
14473;DHT22;7322;50.872;4.386;2023-06-14T02:58:13;30.20;99.90
14473;DHT22;7322;50.872;4.386;2023-06-14T03:00:41;30.10;99.90
14473;DHT22;7322;50.872;4.386;2023-06-14T03:03:18;30.10;99.90
14473;DHT22;7322;50.872;4.386;2023-06-14T03:05:59;30.20;99.90
14473;DHT22;7322;50.872;4.386;2023-06-14T03:11:56;30.10;99.90
14473;DHT22;7322;50.872;4.386;2023-06-14T03:14:34;30.10;99.90
14473;DHT22;7322;50.872;4.386;2023-06-14T03:17:10;30.10;99.90
14473;DHT22;7322;50.872;4.386;2023-06-14T03:19:42;30.10;99.90
14473;DHT22;7322;50.872;4.386;2023-06-14T03:22:14;30.10;99.90
14473;DHT22;7322;50.872;4.386;2023-06-14T03:24:45;30.10;99.90
14473;DHT22;7322;50.872;4.386;2023-06-14T03:27:25;30.20;99.90
14473;DHT22;7322;50.872;4.386;2023-06-14T03:29:59;30.10;99.90
14473;DHT22;7322;50.872;4.386;2023-06-14T03:32:38;30.10;99.90
14473;DHT22;7322;50.872;4.386;2023-06-14T03:35:14;30.10;99.90
14473;DHT22;7322;50.872;4.386;2023-06-14T03:37:44;30.10;99.90
14473;DHT22;7322;50.872;4.386;2023-06-14T03:40:12;30.10;99.90
14473;DHT22;7322;50.872;4.386;2023-06-14T03:42:39;30.10;99.90
14473;DHT22;7322;50.872;4.386;2023-06-14T03:45:11;30.10;99.90
14473;DHT22;7322;50.872;4.386;2023-06-14T03:47:46;30.10;99.90
14473;DHT22;7322;50.872;4.386;2023-06-14T03:50:14;30.10;99.90
14473;DHT22;7322;50.872;4.386;2023-06-14T03:52:41;30.10;99.90
14473;DHT22;7322;50.872;4.386;2023-06-14T03:55:10;30.10;99.90
14473;DHT22;7322;50.872;4.386;2023-06-14T03:57:39;30.10;99.90
14473;DHT22;7322;50.872;4.386;2023-06-14T04:00:15;30.10;99.90
14473;DHT22;7322;50.872;4.386;2023-06-14T04:02:50;30.10;99.90
14473;DHT22;7322;50.872;4.386;2023-06-14T04:08:14;30.10;99.90
14473;DHT22;7322;50.872;4.386;2023-06-14T04:11:16;30.10;99.90
14473;DHT22;7322;50.872;4.386;2023-06-14T04:14:08;30.10;99.90
14473;DHT22;7322;50.872;4.386;2023-06-14T04:19:31;30.10;99.90
14473;DHT22;7322;50.872;4.386;2023-06-14T04:22:05;30.00;99.90
14473;DHT22;7322;50.872;4.386;2023-06-14T04:24:32;30.10;99.90
14473;DHT22;7322;50.872;4.386;2023-06-14T04:27:01;30.10;99.90
14473;DHT22;7322;50.872;4.386;2023-06-14T04:29:31;30.10;99.90
14473;DHT22;7322;50.872;4.386;2023-06-14T04:31:59;30.10;99.90
14473;DHT22;7322;50.872;4.386;2023-06-14T04:34:28;30.10;99.90
14473;DHT22;7322;50.872;4.386;2023-06-14T04:36:59;30.10;99.90
14473;DHT22;7322;50.872;4.386;2023-06-14T04:39:27;30.10;99.90
14473;DHT22;7322;50.872;4.386;2023-06-14T04:42:05;30.10;99.90
14473;DHT22;7322;50.872;4.386;2023-06-14T04:44:40;30.10;99.90
14473;DHT22;7322;50.872;4.386;2023-06-14T04:47:10;30.10;99.90
14473;DHT22;7322;50.872;4.386;2023-06-14T04:49:38;30.10;99.90
14473;DHT22;7322;50.872;4.386;2023-06-14T04:52:09;30.10;99.90
14473;DHT22;7322;50.872;4.386;2023-06-14T04:54:45;30.10;99.90
14473;DHT22;7322;50.872;4.386;2023-06-14T04:57:13;30.10;99.90
14473;DHT22;7322;50.872;4.386;2023-06-14T04:59:44;30.10;99.90
14473;DHT22;7322;50.872;4.386;2023-06-14T05:02:12;30.10;99.90
14473;DHT22;7322;50.872;4.386;2023-06-14T05:04:40;30.10;99.90
14473;DHT22;7322;50.872;4.386;2023-06-14T05:07:24;30.10;99.90
14473;DHT22;7322;50.872;4.386;2023-06-14T05:09:58;30.10;99.90
14473;DHT22;7322;50.872;4.386;2023-06-14T05:12:48;30.10;99.90
14473;DHT22;7322;50.872;4.386;2023-06-14T05:15:31;30.10;99.90
14473;DHT22;7322;50.872;4.386;2023-06-14T05:17:59;30.10;99.90
14473;DHT22;7322;50.872;4.386;2023-06-14T05:20:28;30.10;99.90
14473;DHT22;7322;50.872;4.386;2023-06-14T05:23:02;30.10;99.90
14473;DHT22;7322;50.872;4.386;2023-06-14T05:25:35;30.10;99.90
14473;DHT22;7322;50.872;4.386;2023-06-14T05:28:03;30.10;99.90
14473;DHT22;7322;50.872;4.386;2023-06-14T05:30:35;30.10;99.90
14473;DHT22;7322;50.872;4.386;2023-06-14T05:33:03;30.10;99.90
14473;DHT22;7322;50.872;4.386;2023-06-14T05:35:49;30.10;99.90
14473;DHT22;7322;50.872;4.386;2023-06-14T05:38:29;30.10;99.90
14473;DHT22;7322;50.872;4.386;2023-06-14T05:40:56;30.10;99.90
14473;DHT22;7322;50.872;4.386;2023-06-14T05:43:23;30.00;99.90
14473;DHT22;7322;50.872;4.386;2023-06-14T05:45:51;30.10;99.90
14473;DHT22;7322;50.872;4.386;2023-06-14T05:48:18;30.10;99.90
14473;DHT22;7322;50.872;4.386;2023-06-14T05:50:46;30.10;99.90
14473;DHT22;7322;50.872;4.386;2023-06-14T05:53:13;30.10;99.90
14473;DHT22;7322;50.872;4.386;2023-06-14T05:55:50;30.10;99.90
14473;DHT22;7322;50.872;4.386;2023-06-14T05:58:25;30.30;99.90
14473;DHT22;7322;50.872;4.386;2023-06-14T06:00:52;30.30;98.20
14473;DHT22;7322;50.872;4.386;2023-06-14T06:03:27;30.30;97.40
14473;DHT22;7322;50.872;4.386;2023-06-14T06:05:56;30.10;97.20
14473;DHT22;7322;50.872;4.386;2023-06-14T06:08:39;30.00;96.90
14473;DHT22;7322;50.872;4.386;2023-06-14T06:11:08;29.90;96.80
14473;DHT22;7322;50.872;4.386;2023-06-14T06:13:36;29.80;96.80
14473;DHT22;7322;50.872;4.386;2023-06-14T06:16:17;29.70;96.50
14473;DHT22;7322;50.872;4.386;2023-06-14T06:18:45;29.60;96.50
14473;DHT22;7322;50.872;4.386;2023-06-14T06:21:13;29.50;96.50
14473;DHT22;7322;50.872;4.386;2023-06-14T06:23:42;29.50;96.40
14473;DHT22;7322;50.872;4.386;2023-06-14T06:26:14;29.30;96.70
14473;DHT22;7322;50.872;4.386;2023-06-14T06:28:47;29.40;96.50
14473;DHT22;7322;50.872;4.386;2023-06-14T06:31:14;29.40;96.50
14473;DHT22;7322;50.872;4.386;2023-06-14T06:33:41;29.20;96.10
14473;DHT22;7322;50.872;4.386;2023-06-14T06:36:08;29.20;96.60
14473;DHT22;7322;50.872;4.386;2023-06-14T06:38:35;29.00;96.60
14473;DHT22;7322;50.872;4.386;2023-06-14T06:41:02;28.90;96.90
14473;DHT22;7322;50.872;4.386;2023-06-14T06:43:30;28.80;97.10
14473;DHT22;7322;50.872;4.386;2023-06-14T06:45:57;28.90;97.40
14473;DHT22;7322;50.872;4.386;2023-06-14T06:48:24;28.90;97.50
14473;DHT22;7322;50.872;4.386;2023-06-14T06:50:51;29.00;97.60
14473;DHT22;7322;50.872;4.386;2023-06-14T06:53:28;29.10;97.70
14473;DHT22;7322;50.872;4.386;2023-06-14T06:55:55;29.00;97.20
14473;DHT22;7322;50.872;4.386;2023-06-14T06:58:22;29.10;97.60
14473;DHT22;7322;50.872;4.386;2023-06-14T07:00:50;29.10;97.20
14473;DHT22;7322;50.872;4.386;2023-06-14T07:03:19;29.00;97.10
14473;DHT22;7322;50.872;4.386;2023-06-14T07:05:46;29.00;97.50
14473;DHT22;7322;50.872;4.386;2023-06-14T07:08:31;29.10;97.90
14473;DHT22;7322;50.872;4.386;2023-06-14T07:10:59;29.20;97.50
14473;DHT22;7322;50.872;4.386;2023-06-14T07:13:32;29.20;97.90
14473;DHT22;7322;50.872;4.386;2023-06-14T07:16:03;29.20;97.70
14473;DHT22;7322;50.872;4.386;2023-06-14T07:18:31;29.20;97.50
14473;DHT22;7322;50.872;4.386;2023-06-14T07:20:58;29.20;97.80
14473;DHT22;7322;50.872;4.386;2023-06-14T07:23:27;29.30;97.90
14473;DHT22;7322;50.872;4.386;2023-06-14T07:25:54;29.30;98.00
14473;DHT22;7322;50.872;4.386;2023-06-14T07:28:24;29.30;97.90
14473;DHT22;7322;50.872;4.386;2023-06-14T07:30:53;29.20;97.90
14473;DHT22;7322;50.872;4.386;2023-06-14T07:33:24;29.30;98.40
14473;DHT22;7322;50.872;4.386;2023-06-14T07:35:58;29.40;98.30
14473;DHT22;7322;50.872;4.386;2023-06-14T07:38:32;29.40;98.70
14473;DHT22;7322;50.872;4.386;2023-06-14T07:41:04;29.30;97.60
14473;DHT22;7322;50.872;4.386;2023-06-14T07:43:36;29.30;98.50
14473;DHT22;7322;50.872;4.386;2023-06-14T07:46:22;29.30;98.60
14473;DHT22;7322;50.872;4.386;2023-06-14T07:48:57;29.30;98.60
14473;DHT22;7322;50.872;4.386;2023-06-14T07:51:24;29.30;98.20
14473;DHT22;7322;50.872;4.386;2023-06-14T07:53:52;29.30;99.00
14473;DHT22;7322;50.872;4.386;2023-06-14T07:56:19;29.40;99.30
14473;DHT22;7322;50.872;4.386;2023-06-14T07:58:46;29.40;99.10
14473;DHT22;7322;50.872;4.386;2023-06-14T08:01:13;29.40;98.90
14473;DHT22;7322;50.872;4.386;2023-06-14T08:03:40;29.30;98.30
14473;DHT22;7322;50.872;4.386;2023-06-14T08:06:09;29.30;98.70
14473;DHT22;7322;50.872;4.386;2023-06-14T08:08:37;29.30;99.00
14473;DHT22;7322;50.872;4.386;2023-06-14T08:11:04;29.20;98.90
14473;DHT22;7322;50.872;4.386;2023-06-14T08:13:31;29.30;99.60
14473;DHT22;7322;50.872;4.386;2023-06-14T08:15:58;29.40;99.90
14473;DHT22;7322;50.872;4.386;2023-06-14T08:18:26;29.40;99.00
14473;DHT22;7322;50.872;4.386;2023-06-14T08:20:54;29.30;98.60
14473;DHT22;7322;50.872;4.386;2023-06-14T08:23:25;29.30;99.00
14473;DHT22;7322;50.872;4.386;2023-06-14T08:25:52;29.30;99.20
14473;DHT22;7322;50.872;4.386;2023-06-14T08:28:20;29.30;98.80
14473;DHT22;7322;50.872;4.386;2023-06-14T08:30:47;29.20;99.00
14473;DHT22;7322;50.872;4.386;2023-06-14T08:33:14;29.40;99.80
14473;DHT22;7322;50.872;4.386;2023-06-14T08:35:41;29.40;99.90
14473;DHT22;7322;50.872;4.386;2023-06-14T08:38:10;29.50;99.90
14473;DHT22;7322;50.872;4.386;2023-06-14T08:40:40;29.50;99.90
14473;DHT22;7322;50.872;4.386;2023-06-14T08:43:08;29.60;99.70
14473;DHT22;7322;50.872;4.386;2023-06-14T08:45:35;29.60;99.80
14473;DHT22;7322;50.872;4.386;2023-06-14T08:48:06;29.60;99.90
14473;DHT22;7322;50.872;4.386;2023-06-14T08:50:36;29.60;99.50
14473;DHT22;7322;50.872;4.386;2023-06-14T08:53:08;29.50;98.10
14473;DHT22;7322;50.872;4.386;2023-06-14T08:55:40;29.50;99.10
14473;DHT22;7322;50.872;4.386;2023-06-14T08:58:07;29.50;99.60
14473;DHT22;7322;50.872;4.386;2023-06-14T09:00:35;29.60;99.90
14473;DHT22;7322;50.872;4.386;2023-06-14T09:03:03;29.60;99.90
14473;DHT22;7322;50.872;4.386;2023-06-14T09:05:31;29.60;99.20
14473;DHT22;7322;50.872;4.386;2023-06-14T09:07:58;29.50;99.50
14473;DHT22;7322;50.872;4.386;2023-06-14T09:10:27;29.50;99.40
14473;DHT22;7322;50.872;4.386;2023-06-14T09:12:56;29.40;98.40
14473;DHT22;7322;50.872;4.386;2023-06-14T09:15:37;29.50;99.30
14473;DHT22;7322;50.872;4.386;2023-06-14T09:18:04;29.50;98.80
14473;DHT22;7322;50.872;4.386;2023-06-14T09:20:32;29.40;98.90
14473;DHT22;7322;50.872;4.386;2023-06-14T09:23:00;29.40;99.40
14473;DHT22;7322;50.872;4.386;2023-06-14T09:25:27;29.40;99.30
14473;DHT22;7322;50.872;4.386;2023-06-14T09:27:56;29.40;98.70
14473;DHT22;7322;50.872;4.386;2023-06-14T09:30:23;29.50;99.20
14473;DHT22;7322;50.872;4.386;2023-06-14T09:32:51;29.50;99.50
14473;DHT22;7322;50.872;4.386;2023-06-14T09:35:18;29.60;99.90
14473;DHT22;7322;50.872;4.386;2023-06-14T09:37:45;29.60;99.70
14473;DHT22;7322;50.872;4.386;2023-06-14T09:40:12;29.60;99.60
14473;DHT22;7322;50.872;4.386;2023-06-14T09:42:39;29.60;99.90
14473;DHT22;7322;50.872;4.386;2023-06-14T09:45:10;29.70;99.90
14473;DHT22;7322;50.872;4.386;2023-06-14T09:47:39;29.70;99.40
14473;DHT22;7322;50.872;4.386;2023-06-14T09:50:07;29.70;99.10
14473;DHT22;7322;50.872;4.386;2023-06-14T09:52:34;29.70;99.10
14473;DHT22;7322;50.872;4.386;2023-06-14T09:55:11;29.70;98.80
14473;DHT22;7322;50.872;4.386;2023-06-14T09:57:41;29.70;98.60
14473;DHT22;7322;50.872;4.386;2023-06-14T10:00:13;29.60;99.60
14473;DHT22;7322;50.872;4.386;2023-06-14T10:02:42;29.70;99.70
14473;DHT22;7322;50.872;4.386;2023-06-14T10:05:17;29.70;99.70
14473;DHT22;7322;50.872;4.386;2023-06-14T10:07:52;29.70;99.80
14473;DHT22;7322;50.872;4.386;2023-06-14T10:10:20;29.80;99.90
14473;DHT22;7322;50.872;4.386;2023-06-14T10:12:47;29.80;99.40
14473;DHT22;7322;50.872;4.386;2023-06-14T10:15:20;29.80;99.30
14473;DHT22;7322;50.872;4.386;2023-06-14T10:17:52;29.80;99.90
14473;DHT22;7322;50.872;4.386;2023-06-14T10:20:33;29.90;99.90
14473;DHT22;7322;50.872;4.386;2023-06-14T10:23:06;29.90;99.90
14473;DHT22;7322;50.872;4.386;2023-06-14T10:25:36;30.00;99.90
14473;DHT22;7322;50.872;4.386;2023-06-14T10:28:17;29.90;97.20
14473;DHT22;7322;50.872;4.386;2023-06-14T10:31:08;29.90;99.20
14473;DHT22;7322;50.872;4.386;2023-06-14T10:33:36;30.00;99.80
14473;DHT22;7322;50.872;4.386;2023-06-14T10:36:10;29.90;99.20
14473;DHT22;7322;50.872;4.386;2023-06-14T10:38:38;30.00;99.40
14473;DHT22;7322;50.872;4.386;2023-06-14T10:41:06;30.00;99.70
14473;DHT22;7322;50.872;4.386;2023-06-14T10:43:34;30.10;99.60
14473;DHT22;7322;50.872;4.386;2023-06-14T10:46:18;30.00;99.70
14473;DHT22;7322;50.872;4.386;2023-06-14T10:48:57;30.00;99.10
14473;DHT22;7322;50.872;4.386;2023-06-14T10:51:24;30.00;98.60
14473;DHT22;7322;50.872;4.386;2023-06-14T10:53:52;29.90;98.70
14473;DHT22;7322;50.872;4.386;2023-06-14T10:56:29;30.00;98.80
14473;DHT22;7322;50.872;4.386;2023-06-14T10:58:57;30.00;99.20
14473;DHT22;7322;50.872;4.386;2023-06-14T11:01:35;30.00;98.80
14473;DHT22;7322;50.872;4.386;2023-06-14T11:04:09;30.00;98.40
14473;DHT22;7322;50.872;4.386;2023-06-14T11:06:54;30.00;98.70
14473;DHT22;7322;50.872;4.386;2023-06-14T11:09:47;30.00;97.90
14473;DHT22;7322;50.872;4.386;2023-06-14T11:12:19;30.00;97.90
14473;DHT22;7322;50.872;4.386;2023-06-14T11:14:47;30.00;97.90
14473;DHT22;7322;50.872;4.386;2023-06-14T11:17:16;30.00;99.20
14473;DHT22;7322;50.872;4.386;2023-06-14T11:19:44;30.10;99.90
14473;DHT22;7322;50.872;4.386;2023-06-14T11:22:12;30.20;99.90
14473;DHT22;7322;50.872;4.386;2023-06-14T11:24:40;30.30;99.90
14473;DHT22;7322;50.872;4.386;2023-06-14T11:27:07;30.30;99.90
14473;DHT22;7322;50.872;4.386;2023-06-14T11:30:03;30.40;99.90
14473;DHT22;7322;50.872;4.386;2023-06-14T11:32:32;30.40;99.90
14473;DHT22;7322;50.872;4.386;2023-06-14T11:35:01;30.40;99.90
14473;DHT22;7322;50.872;4.386;2023-06-14T11:37:30;30.40;99.90
14473;DHT22;7322;50.872;4.386;2023-06-14T11:39:58;30.40;99.90
14473;DHT22;7322;50.872;4.386;2023-06-14T11:42:27;30.50;99.90
14473;DHT22;7322;50.872;4.386;2023-06-14T11:44:54;30.50;99.90
14473;DHT22;7322;50.872;4.386;2023-06-14T11:47:22;30.50;99.90
14473;DHT22;7322;50.872;4.386;2023-06-14T11:49:50;30.50;99.90
14473;DHT22;7322;50.872;4.386;2023-06-14T11:52:20;30.50;99.90
14473;DHT22;7322;50.872;4.386;2023-06-14T11:54:49;30.50;99.90
14473;DHT22;7322;50.872;4.386;2023-06-14T11:57:18;30.50;99.90
14473;DHT22;7322;50.872;4.386;2023-06-14T11:59:46;30.50;99.90
14473;DHT22;7322;50.872;4.386;2023-06-14T12:02:14;30.50;99.90
14473;DHT22;7322;50.872;4.386;2023-06-14T12:04:42;30.60;99.90
14473;DHT22;7322;50.872;4.386;2023-06-14T12:07:14;30.60;99.90
14473;DHT22;7322;50.872;4.386;2023-06-14T12:10:06;30.60;99.90
14473;DHT22;7322;50.872;4.386;2023-06-14T12:12:36;30.60;99.90
14473;DHT22;7322;50.872;4.386;2023-06-14T12:15:07;30.60;99.90
14473;DHT22;7322;50.872;4.386;2023-06-14T12:17:35;30.60;99.90
14473;DHT22;7322;50.872;4.386;2023-06-14T12:20:10;30.60;99.90
14473;DHT22;7322;50.872;4.386;2023-06-14T12:22:59;30.60;99.90
14473;DHT22;7322;50.872;4.386;2023-06-14T12:25:30;30.70;99.90
14473;DHT22;7322;50.872;4.386;2023-06-14T12:27:58;30.60;99.90
14473;DHT22;7322;50.872;4.386;2023-06-14T12:30:26;30.60;99.90
14473;DHT22;7322;50.872;4.386;2023-06-14T12:32:55;30.60;99.90
14473;DHT22;7322;50.872;4.386;2023-06-14T12:35:41;30.60;99.90
14473;DHT22;7322;50.872;4.386;2023-06-14T12:38:09;30.70;99.90
14473;DHT22;7322;50.872;4.386;2023-06-14T12:40:36;30.60;99.90
14473;DHT22;7322;50.872;4.386;2023-06-14T12:43:05;30.60;99.90
14473;DHT22;7322;50.872;4.386;2023-06-14T12:45:31;30.60;99.90
14473;DHT22;7322;50.872;4.386;2023-06-14T12:47:58;30.60;99.90
14473;DHT22;7322;50.872;4.386;2023-06-14T12:50:25;30.60;99.90
14473;DHT22;7322;50.872;4.386;2023-06-14T12:52:52;30.60;99.90
14473;DHT22;7322;50.872;4.386;2023-06-14T12:55:21;30.60;99.90
14473;DHT22;7322;50.872;4.386;2023-06-14T12:57:47;30.60;99.90
14473;DHT22;7322;50.872;4.386;2023-06-14T13:00:15;30.60;99.90
14473;DHT22;7322;50.872;4.386;2023-06-14T13:02:43;30.60;99.90
14473;DHT22;7322;50.872;4.386;2023-06-14T13:05:11;30.60;99.90
14473;DHT22;7322;50.872;4.386;2023-06-14T13:07:38;30.70;99.90
14473;DHT22;7322;50.872;4.386;2023-06-14T13:10:06;30.70;99.90
14473;DHT22;7322;50.872;4.386;2023-06-14T13:12:34;30.70;99.90
14473;DHT22;7322;50.872;4.386;2023-06-14T13:15:01;30.70;99.90
14473;DHT22;7322;50.872;4.386;2023-06-14T13:17:28;30.70;99.90
14473;DHT22;7322;50.872;4.386;2023-06-14T13:19:58;30.60;99.90
14473;DHT22;7322;50.872;4.386;2023-06-14T13:22:25;30.70;99.90
14473;DHT22;7322;50.872;4.386;2023-06-14T13:24:52;30.70;99.90
14473;DHT22;7322;50.872;4.386;2023-06-14T13:27:19;30.70;99.90
14473;DHT22;7322;50.872;4.386;2023-06-14T13:29:47;30.70;99.90
14473;DHT22;7322;50.872;4.386;2023-06-14T13:32:14;30.70;99.90
14473;DHT22;7322;50.872;4.386;2023-06-14T13:34:41;30.70;99.90
14473;DHT22;7322;50.872;4.386;2023-06-14T13:37:08;30.70;99.90
14473;DHT22;7322;50.872;4.386;2023-06-14T13:39:35;30.70;99.90
14473;DHT22;7322;50.872;4.386;2023-06-14T13:42:03;30.70;99.90
14473;DHT22;7322;50.872;4.386;2023-06-14T13:44:31;30.70;99.90
14473;DHT22;7322;50.872;4.386;2023-06-14T13:47:03;30.70;99.90
14473;DHT22;7322;50.872;4.386;2023-06-14T13:49:30;30.70;99.90
14473;DHT22;7322;50.872;4.386;2023-06-14T13:51:57;30.70;99.90
14473;DHT22;7322;50.872;4.386;2023-06-14T13:54:25;30.70;99.90
14473;DHT22;7322;50.872;4.386;2023-06-14T13:56:52;30.70;99.90
14473;DHT22;7322;50.872;4.386;2023-06-14T13:59:19;30.70;99.90
14473;DHT22;7322;50.872;4.386;2023-06-14T14:01:46;30.70;99.90
14473;DHT22;7322;50.872;4.386;2023-06-14T14:04:15;30.70;99.90
14473;DHT22;7322;50.872;4.386;2023-06-14T14:06:42;30.70;99.90
14473;DHT22;7322;50.872;4.386;2023-06-14T14:09:09;30.70;99.90
14473;DHT22;7322;50.872;4.386;2023-06-14T14:11:36;30.70;99.90
14473;DHT22;7322;50.872;4.386;2023-06-14T14:14:05;30.70;99.90
14473;DHT22;7322;50.872;4.386;2023-06-14T14:16:32;30.70;99.90
14473;DHT22;7322;50.872;4.386;2023-06-14T14:19:00;30.70;99.90
14473;DHT22;7322;50.872;4.386;2023-06-14T14:21:29;30.70;99.90
14473;DHT22;7322;50.872;4.386;2023-06-14T14:23:56;30.70;99.90
14473;DHT22;7322;50.872;4.386;2023-06-14T14:26:24;30.70;99.90
14473;DHT22;7322;50.872;4.386;2023-06-14T14:28:51;30.70;99.90
14473;DHT22;7322;50.872;4.386;2023-06-14T14:31:19;30.70;99.90
14473;DHT22;7322;50.872;4.386;2023-06-14T14:33:46;30.70;99.90
14473;DHT22;7322;50.872;4.386;2023-06-14T14:36:13;30.70;99.90
14473;DHT22;7322;50.872;4.386;2023-06-14T14:38:48;30.70;99.90
14473;DHT22;7322;50.872;4.386;2023-06-14T14:41:17;30.70;99.90
14473;DHT22;7322;50.872;4.386;2023-06-14T14:43:44;30.70;99.90
14473;DHT22;7322;50.872;4.386;2023-06-14T14:46:32;30.70;99.90
14473;DHT22;7322;50.872;4.386;2023-06-14T14:48:59;30.70;99.90
14473;DHT22;7322;50.872;4.386;2023-06-14T14:51:27;30.70;99.90
14473;DHT22;7322;50.872;4.386;2023-06-14T14:54:05;30.70;99.90
14473;DHT22;7322;50.872;4.386;2023-06-14T14:56:32;30.70;99.90
14473;DHT22;7322;50.872;4.386;2023-06-14T14:59:07;30.70;99.90
14473;DHT22;7322;50.872;4.386;2023-06-14T15:01:42;30.70;99.90
14473;DHT22;7322;50.872;4.386;2023-06-14T15:04:27;30.70;99.90
14473;DHT22;7322;50.872;4.386;2023-06-14T15:07:14;30.70;99.90
14473;DHT22;7322;50.872;4.386;2023-06-14T15:09:42;30.70;99.90
14473;DHT22;7322;50.872;4.386;2023-06-14T15:12:20;30.70;99.90
14473;DHT22;7322;50.872;4.386;2023-06-14T15:14:57;30.80;99.90
14473;DHT22;7322;50.872;4.386;2023-06-14T15:17:34;30.80;99.90
14473;DHT22;7322;50.872;4.386;2023-06-14T15:20:01;30.80;99.90
14473;DHT22;7322;50.872;4.386;2023-06-14T15:22:33;30.70;99.90
14473;DHT22;7322;50.872;4.386;2023-06-14T15:25:08;30.70;99.90
14473;DHT22;7322;50.872;4.386;2023-06-14T15:27:39;30.80;99.90
14473;DHT22;7322;50.872;4.386;2023-06-14T15:30:09;30.80;99.90
14473;DHT22;7322;50.872;4.386;2023-06-14T15:32:39;30.80;99.90
14473;DHT22;7322;50.872;4.386;2023-06-14T15:35:12;30.80;99.90
14473;DHT22;7322;50.872;4.386;2023-06-14T15:37:39;30.80;99.90
14473;DHT22;7322;50.872;4.386;2023-06-14T15:40:22;30.80;99.90
14473;DHT22;7322;50.872;4.386;2023-06-14T15:42:49;30.90;99.90
14473;DHT22;7322;50.872;4.386;2023-06-14T15:45:22;30.80;99.90
14473;DHT22;7322;50.872;4.386;2023-06-14T15:47:49;30.90;99.90
14473;DHT22;7322;50.872;4.386;2023-06-14T15:50:22;30.80;99.90
14473;DHT22;7322;50.872;4.386;2023-06-14T15:52:49;30.90;99.90
14473;DHT22;7322;50.872;4.386;2023-06-14T15:55:24;30.90;99.90
14473;DHT22;7322;50.872;4.386;2023-06-14T15:57:58;30.90;99.90
14473;DHT22;7322;50.872;4.386;2023-06-14T16:00:26;30.90;99.90
14473;DHT22;7322;50.872;4.386;2023-06-14T16:02:53;30.90;99.90
14473;DHT22;7322;50.872;4.386;2023-06-14T16:05:20;30.90;99.90
14473;DHT22;7322;50.872;4.386;2023-06-14T16:07:47;31.00;99.90
14473;DHT22;7322;50.872;4.386;2023-06-14T16:10:14;31.00;99.90
14473;DHT22;7322;50.872;4.386;2023-06-14T16:12:43;31.00;99.90
14473;DHT22;7322;50.872;4.386;2023-06-14T16:15:11;31.10;99.90
14473;DHT22;7322;50.872;4.386;2023-06-14T16:17:40;31.10;99.90
14473;DHT22;7322;50.872;4.386;2023-06-14T16:20:10;31.20;99.90
14473;DHT22;7322;50.872;4.386;2023-06-14T16:22:39;31.30;99.90
14473;DHT22;7322;50.872;4.386;2023-06-14T16:25:06;31.40;99.90
14473;DHT22;7322;50.872;4.386;2023-06-14T16:27:41;31.40;99.90
14473;DHT22;7322;50.872;4.386;2023-06-14T16:30:15;31.60;99.90
14473;DHT22;7322;50.872;4.386;2023-06-14T16:32:44;31.70;99.90
14473;DHT22;7322;50.872;4.386;2023-06-14T16:35:24;31.80;99.90
14473;DHT22;7322;50.872;4.386;2023-06-14T16:41:05;32.00;99.90